<?xml version="1.0" encoding="UTF-8"?>
<gpx xmlns="http://www.topografix.com/GPX/1/1" xmlns:xsi="http://www.w3.org/2001/XMLSchema-instance" version="1.1" xsi:schemaLocation="http://www.topografix.com/GPX/1/1 http://www.topografix.com/GPX/1/1/gpx.xsd">
  <metadata>
    <name>Auswide Bank Sprint Triathlon</name>
  </metadata>
  <trk>
    <name>Auswide Bank Sprint Triathlon</name>
    <trkseg>
      <trkpt lat="-24.827592" lon="152.466798">
        <ele>6.221583</ele>
        <time>2025-04-27T07:00:00.000Z</time>
      </trkpt>
      <trkpt lat="-24.827874" lon="152.466889">
        <ele>6.221598</ele>
        <time>2025-04-27T07:00:03.000Z</time>
      </trkpt>
      <trkpt lat="-24.828894" lon="152.467228">
        <ele>6.134377</ele>
        <time>2025-04-27T07:00:15.000Z</time>
      </trkpt>
      <trkpt lat="-24.829243" lon="152.467331">
        <ele>6.06742</ele>
        <time>2025-04-27T07:00:19.000Z</time>
      </trkpt>
      <trkpt lat="-24.829342" lon="152.467352">
        <ele>6.050169</ele>
        <time>2025-04-27T07:00:20.000Z</time>
      </trkpt>
      <trkpt lat="-24.829457" lon="152.467288">
        <ele>6.027305</ele>
        <time>2025-04-27T07:00:21.000Z</time>
      </trkpt>
      <trkpt lat="-24.829637" lon="152.467084">
        <ele>5.981557</ele>
        <time>2025-04-27T07:00:24.000Z</time>
      </trkpt>
      <trkpt lat="-24.829916" lon="152.46678">
        <ele>5.907529</ele>
        <time>2025-04-27T07:00:28.000Z</time>
      </trkpt>
      <trkpt lat="-24.830186" lon="152.466598">
        <ele>5.881211</ele>
        <time>2025-04-27T07:00:32.000Z</time>
      </trkpt>
      <trkpt lat="-24.83023" lon="152.466516">
        <ele>5.877323</ele>
        <time>2025-04-27T07:00:33.000Z</time>
      </trkpt>
      <trkpt lat="-24.830581" lon="152.465284">
        <ele>5.822876</ele>
        <time>2025-04-27T07:00:46.000Z</time>
      </trkpt>
      <trkpt lat="-24.830881" lon="152.464146">
        <ele>5.812323</ele>
        <time>2025-04-27T07:00:58.000Z</time>
      </trkpt>
      <trkpt lat="-24.8311" lon="152.463415">
        <ele>5.816314</ele>
        <time>2025-04-27T07:01:06.000Z</time>
      </trkpt>
      <trkpt lat="-24.831204" lon="152.463004">
        <ele>5.828615</ele>
        <time>2025-04-27T07:01:10.000Z</time>
      </trkpt>
      <trkpt lat="-24.83153" lon="152.461854">
        <ele>6.051688</ele>
        <time>2025-04-27T07:01:22.000Z</time>
      </trkpt>
      <trkpt lat="-24.831615" lon="152.461554">
        <ele>6.109151</ele>
        <time>2025-04-27T07:01:25.000Z</time>
      </trkpt>
      <trkpt lat="-24.831925" lon="152.46045">
        <ele>6.317303</ele>
        <time>2025-04-27T07:01:37.000Z</time>
      </trkpt>
      <trkpt lat="-24.831962" lon="152.460322">
        <ele>6.339913</ele>
        <time>2025-04-27T07:01:38.000Z</time>
      </trkpt>
      <trkpt lat="-24.832395" lon="152.460636">
        <ele>6.440236</ele>
        <time>2025-04-27T07:01:44.000Z</time>
      </trkpt>
      <trkpt lat="-24.832622" lon="152.460798">
        <ele>6.493169</ele>
        <time>2025-04-27T07:01:47.000Z</time>
      </trkpt>
      <trkpt lat="-24.832615" lon="152.460805">
        <ele>6.493423</ele>
        <time>2025-04-27T07:01:47.000Z</time>
      </trkpt>
      <trkpt lat="-24.832619" lon="152.460793">
        <ele>6.493699</ele>
        <time>2025-04-27T07:01:47.000Z</time>
      </trkpt>
      <trkpt lat="-24.832628" lon="152.460816">
        <ele>6.495334</ele>
        <time>2025-04-27T07:01:47.000Z</time>
      </trkpt>
      <trkpt lat="-24.832626" lon="152.460804">
        <ele>6.495599</ele>
        <time>2025-04-27T07:01:47.000Z</time>
      </trkpt>
      <trkpt lat="-24.83263" lon="152.460812">
        <ele>6.495872</ele>
        <time>2025-04-27T07:01:47.000Z</time>
      </trkpt>
      <trkpt lat="-24.832626" lon="152.460806">
        <ele>6.497246</ele>
        <time>2025-04-27T07:01:47.000Z</time>
      </trkpt>
      <trkpt lat="-24.832635" lon="152.460812">
        <ele>6.497679</ele>
        <time>2025-04-27T07:01:47.000Z</time>
      </trkpt>
      <trkpt lat="-24.832844" lon="152.460978">
        <ele>6.557802</ele>
        <time>2025-04-27T07:01:50.000Z</time>
      </trkpt>
      <trkpt lat="-24.833205" lon="152.461185">
        <ele>6.696981</ele>
        <time>2025-04-27T07:01:55.000Z</time>
      </trkpt>
      <trkpt lat="-24.833604" lon="152.461307">
        <ele>6.841088</ele>
        <time>2025-04-27T07:02:00.000Z</time>
      </trkpt>
      <trkpt lat="-24.833658" lon="152.461308">
        <ele>6.860287</ele>
        <time>2025-04-27T07:02:01.000Z</time>
      </trkpt>
      <trkpt lat="-24.83381" lon="152.461411">
        <ele>6.918617</ele>
        <time>2025-04-27T07:02:03.000Z</time>
      </trkpt>
      <trkpt lat="-24.83383" lon="152.461472">
        <ele>6.944166</ele>
        <time>2025-04-27T07:02:04.000Z</time>
      </trkpt>
      <trkpt lat="-24.833927" lon="152.461525">
        <ele>6.976622</ele>
        <time>2025-04-27T07:02:05.000Z</time>
      </trkpt>
      <trkpt lat="-24.833967" lon="152.461531">
        <ele>6.992987</ele>
        <time>2025-04-27T07:02:05.000Z</time>
      </trkpt>
      <trkpt lat="-24.834054" lon="152.461461">
        <ele>7.028596</ele>
        <time>2025-04-27T07:02:06.000Z</time>
      </trkpt>
      <trkpt lat="-24.834166" lon="152.461426">
        <ele>7.069616</ele>
        <time>2025-04-27T07:02:07.000Z</time>
      </trkpt>
      <trkpt lat="-24.834188" lon="152.461415">
        <ele>7.075563</ele>
        <time>2025-04-27T07:02:07.000Z</time>
      </trkpt>
      <trkpt lat="-24.834557" lon="152.461463">
        <ele>7.27721</ele>
        <time>2025-04-27T07:02:11.000Z</time>
      </trkpt>
      <trkpt lat="-24.834796" lon="152.461419">
        <ele>7.493785</ele>
        <time>2025-04-27T07:02:14.000Z</time>
      </trkpt>
      <trkpt lat="-24.836935" lon="152.461041">
        <ele>9.25325</ele>
        <time>2025-04-27T07:02:38.000Z</time>
      </trkpt>
      <trkpt lat="-24.837287" lon="152.460991">
        <ele>9.456015</ele>
        <time>2025-04-27T07:02:42.000Z</time>
      </trkpt>
      <trkpt lat="-24.837281" lon="152.460999">
        <ele>9.457861</ele>
        <time>2025-04-27T07:02:42.000Z</time>
      </trkpt>
      <trkpt lat="-24.837297" lon="152.460995">
        <ele>9.459022</ele>
        <time>2025-04-27T07:02:42.000Z</time>
      </trkpt>
      <trkpt lat="-24.837293" lon="152.461004">
        <ele>9.460205</ele>
        <time>2025-04-27T07:02:42.000Z</time>
      </trkpt>
      <trkpt lat="-24.83729" lon="152.461003">
        <ele>9.46319</ele>
        <time>2025-04-27T07:02:42.000Z</time>
      </trkpt>
      <trkpt lat="-24.837293" lon="152.460999">
        <ele>9.463771</ele>
        <time>2025-04-27T07:02:42.000Z</time>
      </trkpt>
      <trkpt lat="-24.837305" lon="152.460994">
        <ele>9.464963</ele>
        <time>2025-04-27T07:02:42.000Z</time>
      </trkpt>
      <trkpt lat="-24.837334" lon="152.460981">
        <ele>9.484478</ele>
        <time>2025-04-27T07:02:42.000Z</time>
      </trkpt>
      <trkpt lat="-24.837743" lon="152.460967">
        <ele>9.722733</ele>
        <time>2025-04-27T07:02:47.000Z</time>
      </trkpt>
      <trkpt lat="-24.838071" lon="152.461008">
        <ele>9.854699</ele>
        <time>2025-04-27T07:02:51.000Z</time>
      </trkpt>
      <trkpt lat="-24.838421" lon="152.461066">
        <ele>9.769772</ele>
        <time>2025-04-27T07:02:55.000Z</time>
      </trkpt>
      <trkpt lat="-24.839595" lon="152.461361">
        <ele>9.466433</ele>
        <time>2025-04-27T07:03:08.000Z</time>
      </trkpt>
      <trkpt lat="-24.840081" lon="152.461443">
        <ele>9.34622</ele>
        <time>2025-04-27T07:03:13.000Z</time>
      </trkpt>
      <trkpt lat="-24.840449" lon="152.461485">
        <ele>9.256887</ele>
        <time>2025-04-27T07:03:17.000Z</time>
      </trkpt>
      <trkpt lat="-24.840875" lon="152.46147">
        <ele>9.152507</ele>
        <time>2025-04-27T07:03:22.000Z</time>
      </trkpt>
      <trkpt lat="-24.841419" lon="152.461405">
        <ele>9.021314</ele>
        <time>2025-04-27T07:03:28.000Z</time>
      </trkpt>
      <trkpt lat="-24.841425" lon="152.461411">
        <ele>9.020581</ele>
        <time>2025-04-27T07:03:28.000Z</time>
      </trkpt>
      <trkpt lat="-24.84141" lon="152.461409">
        <ele>9.019838</ele>
        <time>2025-04-27T07:03:28.000Z</time>
      </trkpt>
      <trkpt lat="-24.840872" lon="152.461482">
        <ele>9.114681</ele>
        <time>2025-04-27T07:03:34.000Z</time>
      </trkpt>
      <trkpt lat="-24.840451" lon="152.461478">
        <ele>9.245564</ele>
        <time>2025-04-27T07:03:39.000Z</time>
      </trkpt>
      <trkpt lat="-24.840082" lon="152.461447">
        <ele>9.357562</ele>
        <time>2025-04-27T07:03:43.000Z</time>
      </trkpt>
      <trkpt lat="-24.839596" lon="152.461363">
        <ele>9.507374</ele>
        <time>2025-04-27T07:03:48.000Z</time>
      </trkpt>
      <trkpt lat="-24.838404" lon="152.461058">
        <ele>9.716231</ele>
        <time>2025-04-27T07:04:02.000Z</time>
      </trkpt>
      <trkpt lat="-24.838082" lon="152.461006">
        <ele>9.770444</ele>
        <time>2025-04-27T07:04:06.000Z</time>
      </trkpt>
      <trkpt lat="-24.837739" lon="152.460976">
        <ele>9.824115</ele>
        <time>2025-04-27T07:04:10.000Z</time>
      </trkpt>
      <trkpt lat="-24.837329" lon="152.460995">
        <ele>9.545139</ele>
        <time>2025-04-27T07:04:15.000Z</time>
      </trkpt>
      <trkpt lat="-24.837303" lon="152.46099">
        <ele>9.522198</ele>
        <time>2025-04-27T07:04:15.000Z</time>
      </trkpt>
      <trkpt lat="-24.837292" lon="152.460992">
        <ele>9.520821</ele>
        <time>2025-04-27T07:04:15.000Z</time>
      </trkpt>
      <trkpt lat="-24.83729" lon="152.460985">
        <ele>9.520131</ele>
        <time>2025-04-27T07:04:15.000Z</time>
      </trkpt>
      <trkpt lat="-24.837289" lon="152.460997">
        <ele>9.516615</ele>
        <time>2025-04-27T07:04:15.000Z</time>
      </trkpt>
      <trkpt lat="-24.837291" lon="152.460994">
        <ele>9.515241</ele>
        <time>2025-04-27T07:04:15.000Z</time>
      </trkpt>
      <trkpt lat="-24.837295" lon="152.460996">
        <ele>9.513865</ele>
        <time>2025-04-27T07:04:15.000Z</time>
      </trkpt>
      <trkpt lat="-24.837277" lon="152.460989">
        <ele>9.5117</ele>
        <time>2025-04-27T07:04:15.000Z</time>
      </trkpt>
      <trkpt lat="-24.836939" lon="152.461043">
        <ele>9.273344</ele>
        <time>2025-04-27T07:04:19.000Z</time>
      </trkpt>
      <trkpt lat="-24.834798" lon="152.46142">
        <ele>7.521271</ele>
        <time>2025-04-27T07:04:43.000Z</time>
      </trkpt>
      <trkpt lat="-24.834557" lon="152.461464">
        <ele>7.309582</ele>
        <time>2025-04-27T07:04:46.000Z</time>
      </trkpt>
      <trkpt lat="-24.834178" lon="152.461421">
        <ele>6.972897</ele>
        <time>2025-04-27T07:04:50.000Z</time>
      </trkpt>
      <trkpt lat="-24.834165" lon="152.461417">
        <ele>6.962119</ele>
        <time>2025-04-27T07:04:50.000Z</time>
      </trkpt>
      <trkpt lat="-24.834048" lon="152.461463">
        <ele>6.934143</ele>
        <time>2025-04-27T07:04:51.000Z</time>
      </trkpt>
      <trkpt lat="-24.833975" lon="152.461516">
        <ele>6.909866</ele>
        <time>2025-04-27T07:04:52.000Z</time>
      </trkpt>
      <trkpt lat="-24.833929" lon="152.461528">
        <ele>6.898706</ele>
        <time>2025-04-27T07:04:53.000Z</time>
      </trkpt>
      <trkpt lat="-24.833834" lon="152.461483">
        <ele>6.876567</ele>
        <time>2025-04-27T07:04:54.000Z</time>
      </trkpt>
      <trkpt lat="-24.833794" lon="152.461415">
        <ele>6.859146</ele>
        <time>2025-04-27T07:04:55.000Z</time>
      </trkpt>
      <trkpt lat="-24.833659" lon="152.461315">
        <ele>6.81938</ele>
        <time>2025-04-27T07:04:57.000Z</time>
      </trkpt>
      <trkpt lat="-24.833608" lon="152.461311">
        <ele>6.806276</ele>
        <time>2025-04-27T07:04:58.000Z</time>
      </trkpt>
      <trkpt lat="-24.8332" lon="152.461167">
        <ele>6.708011</ele>
        <time>2025-04-27T07:05:03.000Z</time>
      </trkpt>
      <trkpt lat="-24.832856" lon="152.460975">
        <ele>6.613097</ele>
        <time>2025-04-27T07:05:07.000Z</time>
      </trkpt>
      <trkpt lat="-24.832634" lon="152.46082">
        <ele>6.551458</ele>
        <time>2025-04-27T07:05:10.000Z</time>
      </trkpt>
      <trkpt lat="-24.832636" lon="152.460814">
        <ele>6.550937</ele>
        <time>2025-04-27T07:05:10.000Z</time>
      </trkpt>
      <trkpt lat="-24.832629" lon="152.460811">
        <ele>6.549282</ele>
        <time>2025-04-27T07:05:10.000Z</time>
      </trkpt>
      <trkpt lat="-24.83262" lon="152.460811">
        <ele>6.548962</ele>
        <time>2025-04-27T07:05:10.000Z</time>
      </trkpt>
      <trkpt lat="-24.832615" lon="152.460807">
        <ele>6.548637</ele>
        <time>2025-04-27T07:05:10.000Z</time>
      </trkpt>
      <trkpt lat="-24.832608" lon="152.460806">
        <ele>6.546664</ele>
        <time>2025-04-27T07:05:10.000Z</time>
      </trkpt>
      <trkpt lat="-24.83262" lon="152.460804">
        <ele>6.546333</ele>
        <time>2025-04-27T07:05:10.000Z</time>
      </trkpt>
      <trkpt lat="-24.832615" lon="152.460802">
        <ele>6.546021</ele>
        <time>2025-04-27T07:05:10.000Z</time>
      </trkpt>
      <trkpt lat="-24.832393" lon="152.460635">
        <ele>6.479666</ele>
        <time>2025-04-27T07:05:13.000Z</time>
      </trkpt>
      <trkpt lat="-24.831958" lon="152.460323">
        <ele>6.353132</ele>
        <time>2025-04-27T07:05:19.000Z</time>
      </trkpt>
      <trkpt lat="-24.831931" lon="152.460453">
        <ele>6.324649</ele>
        <time>2025-04-27T07:05:20.000Z</time>
      </trkpt>
      <trkpt lat="-24.831605" lon="152.46155">
        <ele>6.074798</ele>
        <time>2025-04-27T07:05:32.000Z</time>
      </trkpt>
      <trkpt lat="-24.831529" lon="152.461843">
        <ele>6.03032</ele>
        <time>2025-04-27T07:05:35.000Z</time>
      </trkpt>
      <trkpt lat="-24.831205" lon="152.463006">
        <ele>5.857635</ele>
        <time>2025-04-27T07:05:47.000Z</time>
      </trkpt>
      <trkpt lat="-24.831098" lon="152.463412">
        <ele>5.809089</ele>
        <time>2025-04-27T07:05:51.000Z</time>
      </trkpt>
      <trkpt lat="-24.83089" lon="152.464153">
        <ele>5.812199</ele>
        <time>2025-04-27T07:05:59.000Z</time>
      </trkpt>
      <trkpt lat="-24.830581" lon="152.465296">
        <ele>5.819637</ele>
        <time>2025-04-27T07:06:11.000Z</time>
      </trkpt>
      <trkpt lat="-24.830232" lon="152.466526">
        <ele>5.876108</ele>
        <time>2025-04-27T07:06:24.000Z</time>
      </trkpt>
      <trkpt lat="-24.83018" lon="152.466605">
        <ele>5.880129</ele>
        <time>2025-04-27T07:06:25.000Z</time>
      </trkpt>
      <trkpt lat="-24.829921" lon="152.466775">
        <ele>5.895185</ele>
        <time>2025-04-27T07:06:28.000Z</time>
      </trkpt>
      <trkpt lat="-24.829636" lon="152.467097">
        <ele>5.95902</ele>
        <time>2025-04-27T07:06:33.000Z</time>
      </trkpt>
      <trkpt lat="-24.829455" lon="152.467299">
        <ele>6.019094</ele>
        <time>2025-04-27T07:06:36.000Z</time>
      </trkpt>
      <trkpt lat="-24.82934" lon="152.467347">
        <ele>6.049116</ele>
        <time>2025-04-27T07:06:37.000Z</time>
      </trkpt>
      <trkpt lat="-24.829247" lon="152.467339">
        <ele>6.071764</ele>
        <time>2025-04-27T07:06:38.000Z</time>
      </trkpt>
      <trkpt lat="-24.828899" lon="152.467229">
        <ele>6.159724</ele>
        <time>2025-04-27T07:06:42.000Z</time>
      </trkpt>
      <trkpt lat="-24.827881" lon="152.466884">
        <ele>6.291545</ele>
        <time>2025-04-27T07:06:54.000Z</time>
      </trkpt>
      <trkpt lat="-24.827581" lon="152.466796">
        <ele>6.250696</ele>
        <time>2025-04-27T07:06:57.000Z</time>
      </trkpt>
      <trkpt lat="-24.827061" lon="152.466605">
        <ele>6.178285</ele>
        <time>2025-04-27T07:07:03.000Z</time>
      </trkpt>
      <trkpt lat="-24.826941" lon="152.466561">
        <ele>6.159916</ele>
        <time>2025-04-27T07:07:04.000Z</time>
      </trkpt>
      <trkpt lat="-24.826761" lon="152.466509">
        <ele>6.13439</ele>
        <time>2025-04-27T07:07:06.000Z</time>
      </trkpt>
      <trkpt lat="-24.82662" lon="152.466436">
        <ele>6.113057</ele>
        <time>2025-04-27T07:07:08.000Z</time>
      </trkpt>
      <trkpt lat="-24.826529" lon="152.466342">
        <ele>6.097821</ele>
        <time>2025-04-27T07:07:09.000Z</time>
      </trkpt>
      <trkpt lat="-24.826481" lon="152.466184">
        <ele>6.001337</ele>
        <time>2025-04-27T07:07:11.000Z</time>
      </trkpt>
      <trkpt lat="-24.826463" lon="152.466007">
        <ele>5.878533</ele>
        <time>2025-04-27T07:07:13.000Z</time>
      </trkpt>
      <trkpt lat="-24.826901" lon="152.464312">
        <ele>4.766206</ele>
        <time>2025-04-27T07:07:31.000Z</time>
      </trkpt>
      <trkpt lat="-24.826915" lon="152.464045">
        <ele>4.779632</ele>
        <time>2025-04-27T07:07:34.000Z</time>
      </trkpt>
      <trkpt lat="-24.826974" lon="152.463926">
        <ele>4.784943</ele>
        <time>2025-04-27T07:07:35.000Z</time>
      </trkpt>
      <trkpt lat="-24.826994" lon="152.463916">
        <ele>4.786595</ele>
        <time>2025-04-27T07:07:35.000Z</time>
      </trkpt>
      <trkpt lat="-24.827021" lon="152.46385">
        <ele>4.789896</ele>
        <time>2025-04-27T07:07:36.000Z</time>
      </trkpt>
      <trkpt lat="-24.827037" lon="152.463775">
        <ele>4.793427</ele>
        <time>2025-04-27T07:07:37.000Z</time>
      </trkpt>
      <trkpt lat="-24.827023" lon="152.463737">
        <ele>4.795169</ele>
        <time>2025-04-27T07:07:37.000Z</time>
      </trkpt>
      <trkpt lat="-24.826965" lon="152.463652">
        <ele>4.800402</ele>
        <time>2025-04-27T07:07:38.000Z</time>
      </trkpt>
      <trkpt lat="-24.826852" lon="152.46363">
        <ele>4.805663</ele>
        <time>2025-04-27T07:07:39.000Z</time>
      </trkpt>
      <trkpt lat="-24.826793" lon="152.463667">
        <ele>4.809196</ele>
        <time>2025-04-27T07:07:40.000Z</time>
      </trkpt>
      <trkpt lat="-24.826742" lon="152.463756">
        <ele>4.814439</ele>
        <time>2025-04-27T07:07:41.000Z</time>
      </trkpt>
      <trkpt lat="-24.826747" lon="152.463785">
        <ele>4.815676</ele>
        <time>2025-04-27T07:07:41.000Z</time>
      </trkpt>
      <trkpt lat="-24.826737" lon="152.463793">
        <ele>4.815712</ele>
        <time>2025-04-27T07:07:41.000Z</time>
      </trkpt>
      <trkpt lat="-24.826736" lon="152.463783">
        <ele>4.81577</ele>
        <time>2025-04-27T07:07:41.000Z</time>
      </trkpt>
      <trkpt lat="-24.826739" lon="152.463797">
        <ele>4.815954</ele>
        <time>2025-04-27T07:07:41.000Z</time>
      </trkpt>
      <trkpt lat="-24.826749" lon="152.463863">
        <ele>4.819686</ele>
        <time>2025-04-27T07:07:42.000Z</time>
      </trkpt>
      <trkpt lat="-24.82678" lon="152.463934">
        <ele>4.823105</ele>
        <time>2025-04-27T07:07:43.000Z</time>
      </trkpt>
      <trkpt lat="-24.826842" lon="152.464076">
        <ele>4.830627</ele>
        <time>2025-04-27T07:07:45.000Z</time>
      </trkpt>
      <trkpt lat="-24.826898" lon="152.464322">
        <ele>4.842553</ele>
        <time>2025-04-27T07:07:48.000Z</time>
      </trkpt>
      <trkpt lat="-24.826458" lon="152.466015">
        <ele>5.848771</ele>
        <time>2025-04-27T07:08:06.000Z</time>
      </trkpt>
      <trkpt lat="-24.826476" lon="152.466198">
        <ele>5.9702</ele>
        <time>2025-04-27T07:08:08.000Z</time>
      </trkpt>
      <trkpt lat="-24.826539" lon="152.466345">
        <ele>6.079213</ele>
        <time>2025-04-27T07:08:10.000Z</time>
      </trkpt>
      <trkpt lat="-24.826613" lon="152.466432">
        <ele>6.162108</ele>
        <time>2025-04-27T07:08:11.000Z</time>
      </trkpt>
      <trkpt lat="-24.826752" lon="152.466517">
        <ele>6.182663</ele>
        <time>2025-04-27T07:08:13.000Z</time>
      </trkpt>
      <trkpt lat="-24.82694" lon="152.466563">
        <ele>6.19556</ele>
        <time>2025-04-27T07:08:15.000Z</time>
      </trkpt>
      <trkpt lat="-24.827074" lon="152.466611">
        <ele>6.204844</ele>
        <time>2025-04-27T07:08:17.000Z</time>
      </trkpt>
      <trkpt lat="-24.827582" lon="152.466799">
        <ele>6.241444</ele>
        <time>2025-04-27T07:08:23.000Z</time>
      </trkpt>
      <trkpt lat="-24.827871" lon="152.466889">
        <ele>6.262096</ele>
        <time>2025-04-27T07:08:26.000Z</time>
      </trkpt>
      <trkpt lat="-24.8289" lon="152.467229">
        <ele>6.16509</ele>
        <time>2025-04-27T07:08:38.000Z</time>
      </trkpt>
      <trkpt lat="-24.829257" lon="152.467335">
        <ele>6.083824</ele>
        <time>2025-04-27T07:08:42.000Z</time>
      </trkpt>
      <trkpt lat="-24.829338" lon="152.467335">
        <ele>6.062882</ele>
        <time>2025-04-27T07:08:43.000Z</time>
      </trkpt>
      <trkpt lat="-24.829469" lon="152.467297">
        <ele>6.03514</ele>
        <time>2025-04-27T07:08:45.000Z</time>
      </trkpt>
      <trkpt lat="-24.829636" lon="152.467097">
        <ele>5.979632</ele>
        <time>2025-04-27T07:08:48.000Z</time>
      </trkpt>
      <trkpt lat="-24.829925" lon="152.466774">
        <ele>5.893831</ele>
        <time>2025-04-27T07:08:53.000Z</time>
      </trkpt>
      <trkpt lat="-24.83018" lon="152.466607">
        <ele>5.879326</ele>
        <time>2025-04-27T07:08:56.000Z</time>
      </trkpt>
      <trkpt lat="-24.830235" lon="152.46653">
        <ele>5.875451</ele>
        <time>2025-04-27T07:08:57.000Z</time>
      </trkpt>
      <trkpt lat="-24.830569" lon="152.465285">
        <ele>5.82107</ele>
        <time>2025-04-27T07:09:10.000Z</time>
      </trkpt>
      <trkpt lat="-24.830878" lon="152.464153">
        <ele>5.812501</ele>
        <time>2025-04-27T07:09:22.000Z</time>
      </trkpt>
      <trkpt lat="-24.831102" lon="152.463411">
        <ele>5.813512</ele>
        <time>2025-04-27T07:09:30.000Z</time>
      </trkpt>
      <trkpt lat="-24.83121" lon="152.463">
        <ele>5.843334</ele>
        <time>2025-04-27T07:09:34.000Z</time>
      </trkpt>
      <trkpt lat="-24.831536" lon="152.461843">
        <ele>6.045474</ele>
        <time>2025-04-27T07:09:46.000Z</time>
      </trkpt>
      <trkpt lat="-24.831619" lon="152.461551">
        <ele>6.097543</ele>
        <time>2025-04-27T07:09:49.000Z</time>
      </trkpt>
      <trkpt lat="-24.831919" lon="152.460445">
        <ele>6.317319</ele>
        <time>2025-04-27T07:10:01.000Z</time>
      </trkpt>
      <trkpt lat="-24.831967" lon="152.460329">
        <ele>6.342434</ele>
        <time>2025-04-27T07:10:02.000Z</time>
      </trkpt>
      <trkpt lat="-24.832383" lon="152.460632">
        <ele>6.453885</ele>
        <time>2025-04-27T07:10:08.000Z</time>
      </trkpt>
      <trkpt lat="-24.832619" lon="152.460809">
        <ele>6.512689</ele>
        <time>2025-04-27T07:10:11.000Z</time>
      </trkpt>
      <trkpt lat="-24.832618" lon="152.460809">
        <ele>6.512989</ele>
        <time>2025-04-27T07:10:11.000Z</time>
      </trkpt>
      <trkpt lat="-24.832614" lon="152.460804">
        <ele>6.513269</ele>
        <time>2025-04-27T07:10:11.000Z</time>
      </trkpt>
      <trkpt lat="-24.83263" lon="152.460814">
        <ele>6.515106</ele>
        <time>2025-04-27T07:10:11.000Z</time>
      </trkpt>
      <trkpt lat="-24.832633" lon="152.460808">
        <ele>6.515402</ele>
        <time>2025-04-27T07:10:11.000Z</time>
      </trkpt>
      <trkpt lat="-24.832627" lon="152.460806">
        <ele>6.515695</ele>
        <time>2025-04-27T07:10:11.000Z</time>
      </trkpt>
      <trkpt lat="-24.832625" lon="152.460819">
        <ele>6.517225</ele>
        <time>2025-04-27T07:10:11.000Z</time>
      </trkpt>
      <trkpt lat="-24.83264" lon="152.460813">
        <ele>6.517697</ele>
        <time>2025-04-27T07:10:11.000Z</time>
      </trkpt>
      <trkpt lat="-24.832846" lon="152.460964">
        <ele>6.588034</ele>
        <time>2025-04-27T07:10:14.000Z</time>
      </trkpt>
      <trkpt lat="-24.833211" lon="152.461185">
        <ele>6.707571</ele>
        <time>2025-04-27T07:10:19.000Z</time>
      </trkpt>
      <trkpt lat="-24.833598" lon="152.461298">
        <ele>6.831368</ele>
        <time>2025-04-27T07:10:23.000Z</time>
      </trkpt>
      <trkpt lat="-24.833652" lon="152.461319">
        <ele>6.847857</ele>
        <time>2025-04-27T07:10:24.000Z</time>
      </trkpt>
      <trkpt lat="-24.833793" lon="152.461419">
        <ele>6.897955</ele>
        <time>2025-04-27T07:10:26.000Z</time>
      </trkpt>
      <trkpt lat="-24.833831" lon="152.461476">
        <ele>6.919913</ele>
        <time>2025-04-27T07:10:27.000Z</time>
      </trkpt>
      <trkpt lat="-24.833915" lon="152.461526">
        <ele>6.947801</ele>
        <time>2025-04-27T07:10:28.000Z</time>
      </trkpt>
      <trkpt lat="-24.833967" lon="152.461516">
        <ele>6.961857</ele>
        <time>2025-04-27T07:10:29.000Z</time>
      </trkpt>
      <trkpt lat="-24.834061" lon="152.461468">
        <ele>6.992435</ele>
        <time>2025-04-27T07:10:30.000Z</time>
      </trkpt>
      <trkpt lat="-24.834175" lon="152.461421">
        <ele>7.027667</ele>
        <time>2025-04-27T07:10:31.000Z</time>
      </trkpt>
      <trkpt lat="-24.834183" lon="152.461428">
        <ele>7.032783</ele>
        <time>2025-04-27T07:10:31.000Z</time>
      </trkpt>
      <trkpt lat="-24.834564" lon="152.461464">
        <ele>7.288621</ele>
        <time>2025-04-27T07:10:35.000Z</time>
      </trkpt>
      <trkpt lat="-24.834796" lon="152.461435">
        <ele>7.503841</ele>
        <time>2025-04-27T07:10:38.000Z</time>
      </trkpt>
      <trkpt lat="-24.836937" lon="152.461033">
        <ele>9.258086</ele>
        <time>2025-04-27T07:11:02.000Z</time>
      </trkpt>
      <trkpt lat="-24.837291" lon="152.461005">
        <ele>9.476525</ele>
        <time>2025-04-27T07:11:06.000Z</time>
      </trkpt>
      <trkpt lat="-24.837289" lon="152.461004">
        <ele>9.47851</ele>
        <time>2025-04-27T07:11:06.000Z</time>
      </trkpt>
      <trkpt lat="-24.837285" lon="152.460986">
        <ele>9.479787</ele>
        <time>2025-04-27T07:11:06.000Z</time>
      </trkpt>
      <trkpt lat="-24.837283" lon="152.460992">
        <ele>9.481049</ele>
        <time>2025-04-27T07:11:06.000Z</time>
      </trkpt>
      <trkpt lat="-24.837289" lon="152.461">
        <ele>9.484263</ele>
        <time>2025-04-27T07:11:06.000Z</time>
      </trkpt>
      <trkpt lat="-24.837296" lon="152.460993">
        <ele>9.484891</ele>
        <time>2025-04-27T07:11:06.000Z</time>
      </trkpt>
      <trkpt lat="-24.837307" lon="152.460985">
        <ele>9.486166</ele>
        <time>2025-04-27T07:11:06.000Z</time>
      </trkpt>
      <trkpt lat="-24.837324" lon="152.460987">
        <ele>9.507191</ele>
        <time>2025-04-27T07:11:06.000Z</time>
      </trkpt>
      <trkpt lat="-24.837739" lon="152.460965">
        <ele>9.763875</ele>
        <time>2025-04-27T07:11:11.000Z</time>
      </trkpt>
      <trkpt lat="-24.838067" lon="152.46101">
        <ele>9.817964</ele>
        <time>2025-04-27T07:11:15.000Z</time>
      </trkpt>
      <trkpt lat="-24.838408" lon="152.46106">
        <ele>9.74487</ele>
        <time>2025-04-27T07:11:19.000Z</time>
      </trkpt>
      <trkpt lat="-24.839604" lon="152.461365">
        <ele>9.4838</ele>
        <time>2025-04-27T07:11:33.000Z</time>
      </trkpt>
      <trkpt lat="-24.840092" lon="152.461436">
        <ele>9.353737</ele>
        <time>2025-04-27T07:11:38.000Z</time>
      </trkpt>
      <trkpt lat="-24.840454" lon="152.461474">
        <ele>9.254492</ele>
        <time>2025-04-27T07:11:42.000Z</time>
      </trkpt>
      <trkpt lat="-24.840874" lon="152.461464">
        <ele>9.138504</ele>
        <time>2025-04-27T07:11:47.000Z</time>
      </trkpt>
      <trkpt lat="-24.841419" lon="152.46141">
        <ele>8.992701</ele>
        <time>2025-04-27T07:11:53.000Z</time>
      </trkpt>
      <trkpt lat="-24.841411" lon="152.461402">
        <ele>8.991906</ele>
        <time>2025-04-27T07:11:53.000Z</time>
      </trkpt>
      <trkpt lat="-24.841421" lon="152.461418">
        <ele>8.991617</ele>
        <time>2025-04-27T07:11:53.000Z</time>
      </trkpt>
      <trkpt lat="-24.841426" lon="152.461412">
        <ele>8.991358</ele>
        <time>2025-04-27T07:11:53.000Z</time>
      </trkpt>
      <trkpt lat="-24.841422" lon="152.461402">
        <ele>8.990545</ele>
        <time>2025-04-27T07:11:53.000Z</time>
      </trkpt>
      <trkpt lat="-24.840871" lon="152.461464">
        <ele>9.132729</ele>
        <time>2025-04-27T07:11:59.000Z</time>
      </trkpt>
      <trkpt lat="-24.840443" lon="152.461478">
        <ele>9.252753</ele>
        <time>2025-04-27T07:12:04.000Z</time>
      </trkpt>
      <trkpt lat="-24.840084" lon="152.461436">
        <ele>9.355463</ele>
        <time>2025-04-27T07:12:08.000Z</time>
      </trkpt>
      <trkpt lat="-24.839607" lon="152.461362">
        <ele>9.492229</ele>
        <time>2025-04-27T07:12:13.000Z</time>
      </trkpt>
      <trkpt lat="-24.838404" lon="152.461061">
        <ele>9.736703</ele>
        <time>2025-04-27T07:12:27.000Z</time>
      </trkpt>
      <trkpt lat="-24.838082" lon="152.461011">
        <ele>9.805145</ele>
        <time>2025-04-27T07:12:31.000Z</time>
      </trkpt>
      <trkpt lat="-24.837743" lon="152.460972">
        <ele>9.779667</ele>
        <time>2025-04-27T07:12:35.000Z</time>
      </trkpt>
      <trkpt lat="-24.837325" lon="152.460984">
        <ele>9.516559</ele>
        <time>2025-04-27T07:12:40.000Z</time>
      </trkpt>
      <trkpt lat="-24.837303" lon="152.460989">
        <ele>9.495004</ele>
        <time>2025-04-27T07:12:40.000Z</time>
      </trkpt>
      <trkpt lat="-24.837301" lon="152.460999">
        <ele>9.493714</ele>
        <time>2025-04-27T07:12:40.000Z</time>
      </trkpt>
      <trkpt lat="-24.837289" lon="152.46099">
        <ele>9.493054</ele>
        <time>2025-04-27T07:12:40.000Z</time>
      </trkpt>
      <trkpt lat="-24.837285" lon="152.460998">
        <ele>9.489761</ele>
        <time>2025-04-27T07:12:40.000Z</time>
      </trkpt>
      <trkpt lat="-24.837282" lon="152.46099">
        <ele>9.48847</ele>
        <time>2025-04-27T07:12:40.000Z</time>
      </trkpt>
      <trkpt lat="-24.837289" lon="152.461002">
        <ele>9.487168</ele>
        <time>2025-04-27T07:12:40.000Z</time>
      </trkpt>
      <trkpt lat="-24.837276" lon="152.461005">
        <ele>9.485134</ele>
        <time>2025-04-27T07:12:40.000Z</time>
      </trkpt>
      <trkpt lat="-24.83694" lon="152.461033">
        <ele>9.261215</ele>
        <time>2025-04-27T07:12:44.000Z</time>
      </trkpt>
      <trkpt lat="-24.834795" lon="152.461424">
        <ele>7.50809</ele>
        <time>2025-04-27T07:13:08.000Z</time>
      </trkpt>
      <trkpt lat="-24.834566" lon="152.461446">
        <ele>7.293638</ele>
        <time>2025-04-27T07:13:11.000Z</time>
      </trkpt>
      <trkpt lat="-24.834181" lon="152.461414">
        <ele>7.016039</ele>
        <time>2025-04-27T07:13:15.000Z</time>
      </trkpt>
      <trkpt lat="-24.834162" lon="152.461409">
        <ele>7.011213</ele>
        <time>2025-04-27T07:13:15.000Z</time>
      </trkpt>
      <trkpt lat="-24.834056" lon="152.461464">
        <ele>6.977967</ele>
        <time>2025-04-27T07:13:16.000Z</time>
      </trkpt>
      <trkpt lat="-24.833966" lon="152.461527">
        <ele>6.949102</ele>
        <time>2025-04-27T07:13:17.000Z</time>
      </trkpt>
      <trkpt lat="-24.833919" lon="152.461526">
        <ele>6.935845</ele>
        <time>2025-04-27T07:13:18.000Z</time>
      </trkpt>
      <trkpt lat="-24.833834" lon="152.461475">
        <ele>6.909521</ele>
        <time>2025-04-27T07:13:19.000Z</time>
      </trkpt>
      <trkpt lat="-24.833808" lon="152.461409">
        <ele>6.8888</ele>
        <time>2025-04-27T07:13:20.000Z</time>
      </trkpt>
      <trkpt lat="-24.83365" lon="152.461319">
        <ele>6.841538</ele>
        <time>2025-04-27T07:13:22.000Z</time>
      </trkpt>
      <trkpt lat="-24.833608" lon="152.461311">
        <ele>6.825949</ele>
        <time>2025-04-27T07:13:22.000Z</time>
      </trkpt>
      <trkpt lat="-24.8332" lon="152.461171">
        <ele>6.709142</ele>
        <time>2025-04-27T07:13:27.000Z</time>
      </trkpt>
      <trkpt lat="-24.832848" lon="152.460976">
        <ele>6.59633</ele>
        <time>2025-04-27T07:13:31.000Z</time>
      </trkpt>
      <trkpt lat="-24.832631" lon="152.460821">
        <ele>6.525926</ele>
        <time>2025-04-27T07:13:34.000Z</time>
      </trkpt>
      <trkpt lat="-24.832629" lon="152.460805">
        <ele>6.525435</ele>
        <time>2025-04-27T07:13:34.000Z</time>
      </trkpt>
      <trkpt lat="-24.832634" lon="152.460807">
        <ele>6.523847</ele>
        <time>2025-04-27T07:13:34.000Z</time>
      </trkpt>
      <trkpt lat="-24.832626" lon="152.460817">
        <ele>6.523535</ele>
        <time>2025-04-27T07:13:34.000Z</time>
      </trkpt>
      <trkpt lat="-24.832628" lon="152.460812">
        <ele>6.523241</ele>
        <time>2025-04-27T07:13:34.000Z</time>
      </trkpt>
      <trkpt lat="-24.83261" lon="152.460803">
        <ele>6.521339</ele>
        <time>2025-04-27T07:13:34.000Z</time>
      </trkpt>
      <trkpt lat="-24.832618" lon="152.460797">
        <ele>6.521035</ele>
        <time>2025-04-27T07:13:34.000Z</time>
      </trkpt>
      <trkpt lat="-24.832617" lon="152.460806">
        <ele>6.520732</ele>
        <time>2025-04-27T07:13:34.000Z</time>
      </trkpt>
      <trkpt lat="-24.832381" lon="152.460629">
        <ele>6.459843</ele>
        <time>2025-04-27T07:13:37.000Z</time>
      </trkpt>
      <trkpt lat="-24.831967" lon="152.460326">
        <ele>6.34443</ele>
        <time>2025-04-27T07:13:43.000Z</time>
      </trkpt>
      <trkpt lat="-24.83192" lon="152.460459">
        <ele>6.318435</ele>
        <time>2025-04-27T07:13:44.000Z</time>
      </trkpt>
      <trkpt lat="-24.831607" lon="152.461552">
        <ele>6.092382</ele>
        <time>2025-04-27T07:13:56.000Z</time>
      </trkpt>
      <trkpt lat="-24.831529" lon="152.461846">
        <ele>6.042291</ele>
        <time>2025-04-27T07:13:59.000Z</time>
      </trkpt>
      <trkpt lat="-24.831204" lon="152.463005">
        <ele>5.847764</ele>
        <time>2025-04-27T07:14:11.000Z</time>
      </trkpt>
      <trkpt lat="-24.831087" lon="152.463406">
        <ele>5.812413</ele>
        <time>2025-04-27T07:14:15.000Z</time>
      </trkpt>
      <trkpt lat="-24.830885" lon="152.464149">
        <ele>5.81248</ele>
        <time>2025-04-27T07:14:23.000Z</time>
      </trkpt>
      <trkpt lat="-24.83057" lon="152.465288">
        <ele>5.820593</ele>
        <time>2025-04-27T07:14:35.000Z</time>
      </trkpt>
      <trkpt lat="-24.830239" lon="152.466523">
        <ele>5.875229</ele>
        <time>2025-04-27T07:14:48.000Z</time>
      </trkpt>
      <trkpt lat="-24.830177" lon="152.466604">
        <ele>5.879118</ele>
        <time>2025-04-27T07:14:49.000Z</time>
      </trkpt>
      <trkpt lat="-24.829917" lon="152.466775">
        <ele>5.89369</ele>
        <time>2025-04-27T07:14:52.000Z</time>
      </trkpt>
      <trkpt lat="-24.829628" lon="152.467083">
        <ele>5.974469</ele>
        <time>2025-04-27T07:14:56.000Z</time>
      </trkpt>
      <trkpt lat="-24.829459" lon="152.467289">
        <ele>6.031369</ele>
        <time>2025-04-27T07:14:59.000Z</time>
      </trkpt>
      <trkpt lat="-24.829343" lon="152.467352">
        <ele>6.059828</ele>
        <time>2025-04-27T07:15:00.000Z</time>
      </trkpt>
      <trkpt lat="-24.829247" lon="152.467344">
        <ele>6.08128</ele>
        <time>2025-04-27T07:15:01.000Z</time>
      </trkpt>
      <trkpt lat="-24.828901" lon="152.467228">
        <ele>6.164605</ele>
        <time>2025-04-27T07:15:05.000Z</time>
      </trkpt>
      <trkpt lat="-24.827866" lon="152.466882">
        <ele>6.268758</ele>
        <time>2025-04-27T07:15:17.000Z</time>
      </trkpt>
      <trkpt lat="-24.827588" lon="152.466798">
        <ele>6.242815</ele>
        <time>2025-04-27T07:15:20.000Z</time>
      </trkpt>
      <trkpt lat="-24.827067" lon="152.466617">
        <ele>6.196792</ele>
        <time>2025-04-27T07:15:26.000Z</time>
      </trkpt>
      <trkpt lat="-24.826935" lon="152.466569">
        <ele>6.185122</ele>
        <time>2025-04-27T07:15:28.000Z</time>
      </trkpt>
      <trkpt lat="-24.826759" lon="152.466509">
        <ele>6.168907</ele>
        <time>2025-04-27T07:15:30.000Z</time>
      </trkpt>
      <trkpt lat="-24.826609" lon="152.466427">
        <ele>6.155338</ele>
        <time>2025-04-27T07:15:32.000Z</time>
      </trkpt>
      <trkpt lat="-24.826546" lon="152.466341">
        <ele>6.088281</ele>
        <time>2025-04-27T07:15:33.000Z</time>
      </trkpt>
      <trkpt lat="-24.826467" lon="152.46619">
        <ele>5.97888</ele>
        <time>2025-04-27T07:15:35.000Z</time>
      </trkpt>
      <trkpt lat="-24.826462" lon="152.466003">
        <ele>5.857023</ele>
        <time>2025-04-27T07:15:37.000Z</time>
      </trkpt>
      <trkpt lat="-24.826899" lon="152.464328">
        <ele>4.825392</ele>
        <time>2025-04-27T07:15:55.000Z</time>
      </trkpt>
      <trkpt lat="-24.82692" lon="152.464028">
        <ele>4.818672</ele>
        <time>2025-04-27T07:15:58.000Z</time>
      </trkpt>
      <trkpt lat="-24.826974" lon="152.463943">
        <ele>4.816008</ele>
        <time>2025-04-27T07:15:59.000Z</time>
      </trkpt>
      <trkpt lat="-24.826992" lon="152.463915">
        <ele>4.815188</ele>
        <time>2025-04-27T07:15:59.000Z</time>
      </trkpt>
      <trkpt lat="-24.82703" lon="152.463844">
        <ele>4.813539</ele>
        <time>2025-04-27T07:16:00.000Z</time>
      </trkpt>
      <trkpt lat="-24.827022" lon="152.463773">
        <ele>4.811761</ele>
        <time>2025-04-27T07:16:01.000Z</time>
      </trkpt>
      <trkpt lat="-24.827015" lon="152.463742">
        <ele>4.810877</ele>
        <time>2025-04-27T07:16:01.000Z</time>
      </trkpt>
      <trkpt lat="-24.826958" lon="152.463665">
        <ele>4.80827</ele>
        <time>2025-04-27T07:16:02.000Z</time>
      </trkpt>
      <trkpt lat="-24.826862" lon="152.463629">
        <ele>4.805644</ele>
        <time>2025-04-27T07:16:03.000Z</time>
      </trkpt>
      <trkpt lat="-24.826799" lon="152.463664">
        <ele>4.803867</ele>
        <time>2025-04-27T07:16:04.000Z</time>
      </trkpt>
      <trkpt lat="-24.826731" lon="152.463748">
        <ele>4.801252</ele>
        <time>2025-04-27T07:16:05.000Z</time>
      </trkpt>
      <trkpt lat="-24.826733" lon="152.463791">
        <ele>4.800622</ele>
        <time>2025-04-27T07:16:05.000Z</time>
      </trkpt>
      <trkpt lat="-24.826748" lon="152.463785">
        <ele>4.8006</ele>
        <time>2025-04-27T07:16:05.000Z</time>
      </trkpt>
      <trkpt lat="-24.826743" lon="152.463781">
        <ele>4.800578</ele>
        <time>2025-04-27T07:16:05.000Z</time>
      </trkpt>
      <trkpt lat="-24.826744" lon="152.463791">
        <ele>4.800478</ele>
        <time>2025-04-27T07:16:05.000Z</time>
      </trkpt>
      <trkpt lat="-24.826739" lon="152.463867">
        <ele>4.798614</ele>
        <time>2025-04-27T07:16:06.000Z</time>
      </trkpt>
      <trkpt lat="-24.826789" lon="152.463921">
        <ele>4.796901</ele>
        <time>2025-04-27T07:16:07.000Z</time>
      </trkpt>
      <trkpt lat="-24.82685" lon="152.464077">
        <ele>4.793152</ele>
        <time>2025-04-27T07:16:09.000Z</time>
      </trkpt>
      <trkpt lat="-24.826903" lon="152.464326">
        <ele>4.787174</ele>
        <time>2025-04-27T07:16:12.000Z</time>
      </trkpt>
      <trkpt lat="-24.826466" lon="152.466017">
        <ele>5.870755</ele>
        <time>2025-04-27T07:16:30.000Z</time>
      </trkpt>
      <trkpt lat="-24.826473" lon="152.46619">
        <ele>5.99348</ele>
        <time>2025-04-27T07:16:32.000Z</time>
      </trkpt>
      <trkpt lat="-24.826534" lon="152.466347">
        <ele>6.103688</ele>
        <time>2025-04-27T07:16:34.000Z</time>
      </trkpt>
      <trkpt lat="-24.82661" lon="152.46643">
        <ele>6.127395</ele>
        <time>2025-04-27T07:16:35.000Z</time>
      </trkpt>
      <trkpt lat="-24.82675" lon="152.4665">
        <ele>6.145976</ele>
        <time>2025-04-27T07:16:37.000Z</time>
      </trkpt>
      <trkpt lat="-24.826945" lon="152.466569">
        <ele>6.168188</ele>
        <time>2025-04-27T07:16:39.000Z</time>
      </trkpt>
      <trkpt lat="-24.827071" lon="152.466613">
        <ele>6.18417</ele>
        <time>2025-04-27T07:16:40.000Z</time>
      </trkpt>
      <trkpt lat="-24.827587" lon="152.466782">
        <ele>6.247207</ele>
        <time>2025-04-27T07:16:46.000Z</time>
      </trkpt>
      <trkpt lat="-24.827882" lon="152.466892">
        <ele>6.282761</ele>
        <time>2025-04-27T07:16:49.000Z</time>
      </trkpt>
      <trkpt lat="-24.8289" lon="152.467227">
        <ele>6.161992</ele>
        <time>2025-04-27T07:17:01.000Z</time>
      </trkpt>
      <trkpt lat="-24.829243" lon="152.467345">
        <ele>6.075499</ele>
        <time>2025-04-27T07:17:05.000Z</time>
      </trkpt>
      <trkpt lat="-24.82934" lon="152.467345">
        <ele>6.053215</ele>
        <time>2025-04-27T07:17:06.000Z</time>
      </trkpt>
      <trkpt lat="-24.82946" lon="152.467293">
        <ele>6.023692</ele>
        <time>2025-04-27T07:17:07.000Z</time>
      </trkpt>
      <trkpt lat="-24.829639" lon="152.467096">
        <ele>5.964623</ele>
        <time>2025-04-27T07:17:10.000Z</time>
      </trkpt>
      <trkpt lat="-24.829908" lon="152.466781">
        <ele>5.894353</ele>
        <time>2025-04-27T07:17:14.000Z</time>
      </trkpt>
      <trkpt lat="-24.83019" lon="152.4666">
        <ele>5.879504</ele>
        <time>2025-04-27T07:17:18.000Z</time>
      </trkpt>
      <trkpt lat="-24.830229" lon="152.466516">
        <ele>5.875561</ele>
        <time>2025-04-27T07:17:19.000Z</time>
      </trkpt>
      <trkpt lat="-24.830578" lon="152.465287">
        <ele>5.819932</ele>
        <time>2025-04-27T07:17:32.000Z</time>
      </trkpt>
      <trkpt lat="-24.830887" lon="152.464149">
        <ele>5.812345</ele>
        <time>2025-04-27T07:17:44.000Z</time>
      </trkpt>
      <trkpt lat="-24.8311" lon="152.463404">
        <ele>5.810309</ele>
        <time>2025-04-27T07:17:52.000Z</time>
      </trkpt>
      <trkpt lat="-24.831199" lon="152.463006">
        <ele>5.854559</ele>
        <time>2025-04-27T07:17:56.000Z</time>
      </trkpt>
      <trkpt lat="-24.831528" lon="152.461846">
        <ele>6.035019</ele>
        <time>2025-04-27T07:18:08.000Z</time>
      </trkpt>
      <trkpt lat="-24.831608" lon="152.461551">
        <ele>6.081494</ele>
        <time>2025-04-27T07:18:11.000Z</time>
      </trkpt>
      <trkpt lat="-24.831936" lon="152.460444">
        <ele>6.321916</ele>
        <time>2025-04-27T07:18:23.000Z</time>
      </trkpt>
      <trkpt lat="-24.831961" lon="152.460332">
        <ele>6.349547</ele>
        <time>2025-04-27T07:18:24.000Z</time>
      </trkpt>
      <trkpt lat="-24.832383" lon="152.460629">
        <ele>6.472165</ele>
        <time>2025-04-27T07:18:30.000Z</time>
      </trkpt>
      <trkpt lat="-24.832613" lon="152.460802">
        <ele>6.536857</ele>
        <time>2025-04-27T07:18:33.000Z</time>
      </trkpt>
      <trkpt lat="-24.832606" lon="152.4608">
        <ele>6.537178</ele>
        <time>2025-04-27T07:18:33.000Z</time>
      </trkpt>
      <trkpt lat="-24.832617" lon="152.460793">
        <ele>6.537511</ele>
        <time>2025-04-27T07:18:33.000Z</time>
      </trkpt>
      <trkpt lat="-24.832628" lon="152.460805">
        <ele>6.539614</ele>
        <time>2025-04-27T07:18:33.000Z</time>
      </trkpt>
      <trkpt lat="-24.832632" lon="152.460815">
        <ele>6.539945</ele>
        <time>2025-04-27T07:18:33.000Z</time>
      </trkpt>
      <trkpt lat="-24.832628" lon="152.460809">
        <ele>6.540284</ele>
        <time>2025-04-27T07:18:33.000Z</time>
      </trkpt>
      <trkpt lat="-24.832625" lon="152.460805">
        <ele>6.542056</ele>
        <time>2025-04-27T07:18:33.000Z</time>
      </trkpt>
      <trkpt lat="-24.832634" lon="152.460806">
        <ele>6.542611</ele>
        <time>2025-04-27T07:18:33.000Z</time>
      </trkpt>
      <trkpt lat="-24.832849" lon="152.460971">
        <ele>6.608287</ele>
        <time>2025-04-27T07:18:36.000Z</time>
      </trkpt>
      <trkpt lat="-24.833197" lon="152.461184">
        <ele>6.709358</ele>
        <time>2025-04-27T07:18:40.000Z</time>
      </trkpt>
      <trkpt lat="-24.833607" lon="152.461302">
        <ele>6.814026</ele>
        <time>2025-04-27T07:18:45.000Z</time>
      </trkpt>
      <trkpt lat="-24.833665" lon="152.461318">
        <ele>6.827998</ele>
        <time>2025-04-27T07:18:46.000Z</time>
      </trkpt>
      <trkpt lat="-24.83381" lon="152.46141">
        <ele>6.870356</ele>
        <time>2025-04-27T07:18:48.000Z</time>
      </trkpt>
      <trkpt lat="-24.833831" lon="152.461487">
        <ele>6.888901</ele>
        <time>2025-04-27T07:18:49.000Z</time>
      </trkpt>
      <trkpt lat="-24.833928" lon="152.461516">
        <ele>6.91249</ele>
        <time>2025-04-27T07:18:50.000Z</time>
      </trkpt>
      <trkpt lat="-24.833977" lon="152.461517">
        <ele>6.924369</ele>
        <time>2025-04-27T07:18:51.000Z</time>
      </trkpt>
      <trkpt lat="-24.834046" lon="152.461458">
        <ele>6.950238</ele>
        <time>2025-04-27T07:18:52.000Z</time>
      </trkpt>
      <trkpt lat="-24.834162" lon="152.461425">
        <ele>6.980024</ele>
        <time>2025-04-27T07:18:53.000Z</time>
      </trkpt>
      <trkpt lat="-24.834193" lon="152.461413">
        <ele>6.984343</ele>
        <time>2025-04-27T07:18:53.000Z</time>
      </trkpt>
      <trkpt lat="-24.834552" lon="152.461463">
        <ele>7.303621</ele>
        <time>2025-04-27T07:18:57.000Z</time>
      </trkpt>
      <trkpt lat="-24.8348" lon="152.461425">
        <ele>7.51638</ele>
        <time>2025-04-27T07:19:00.000Z</time>
      </trkpt>
      <trkpt lat="-24.836948" lon="152.46104">
        <ele>9.268507</ele>
        <time>2025-04-27T07:19:24.000Z</time>
      </trkpt>
      <trkpt lat="-24.837277" lon="152.460991">
        <ele>9.50193</ele>
        <time>2025-04-27T07:19:28.000Z</time>
      </trkpt>
      <trkpt lat="-24.837286" lon="152.460991">
        <ele>9.504053</ele>
        <time>2025-04-27T07:19:28.000Z</time>
      </trkpt>
      <trkpt lat="-24.837297" lon="152.460995">
        <ele>9.505403</ele>
        <time>2025-04-27T07:19:28.000Z</time>
      </trkpt>
      <trkpt lat="-24.837298" lon="152.461001">
        <ele>9.506755</ele>
        <time>2025-04-27T07:19:28.000Z</time>
      </trkpt>
      <trkpt lat="-24.837297" lon="152.460989">
        <ele>9.510191</ele>
        <time>2025-04-27T07:19:28.000Z</time>
      </trkpt>
      <trkpt lat="-24.837291" lon="152.460992">
        <ele>9.51087</ele>
        <time>2025-04-27T07:19:28.000Z</time>
      </trkpt>
      <trkpt lat="-24.8373" lon="152.460993">
        <ele>9.51223</ele>
        <time>2025-04-27T07:19:28.000Z</time>
      </trkpt>
      <trkpt lat="-24.837333" lon="152.460982">
        <ele>9.534687</ele>
        <time>2025-04-27T07:19:28.000Z</time>
      </trkpt>
      <trkpt lat="-24.837739" lon="152.460971">
        <ele>9.808961</ele>
        <time>2025-04-27T07:19:33.000Z</time>
      </trkpt>
      <trkpt lat="-24.838081" lon="152.461001">
        <ele>9.782601</ele>
        <time>2025-04-27T07:19:37.000Z</time>
      </trkpt>
      <trkpt lat="-24.838403" lon="152.461076">
        <ele>9.723136</ele>
        <time>2025-04-27T07:19:41.000Z</time>
      </trkpt>
      <trkpt lat="-24.839611" lon="152.461359">
        <ele>9.502879</ele>
        <time>2025-04-27T07:19:55.000Z</time>
      </trkpt>
      <trkpt lat="-24.840079" lon="152.461448">
        <ele>9.3575</ele>
        <time>2025-04-27T07:20:00.000Z</time>
      </trkpt>
      <trkpt lat="-24.84045" lon="152.461479">
        <ele>9.248813</ele>
        <time>2025-04-27T07:20:04.000Z</time>
      </trkpt>
      <trkpt lat="-24.840874" lon="152.461472">
        <ele>9.121817</ele>
        <time>2025-04-27T07:20:09.000Z</time>
      </trkpt>
      <trkpt lat="-24.841415" lon="152.461403">
        <ele>9.010313</ele>
        <time>2025-04-27T07:20:15.000Z</time>
      </trkpt>
      <trkpt lat="-24.840874" lon="152.461479">
        <ele>9.147493</ele>
        <time>2025-04-27T07:20:21.000Z</time>
      </trkpt>
      <trkpt lat="-24.840448" lon="152.461484">
        <ele>9.25663</ele>
        <time>2025-04-27T07:20:26.000Z</time>
      </trkpt>
      <trkpt lat="-24.840096" lon="152.461452">
        <ele>9.350012</ele>
        <time>2025-04-27T07:20:30.000Z</time>
      </trkpt>
      <trkpt lat="-24.839606" lon="152.461369">
        <ele>9.472674</ele>
        <time>2025-04-27T07:20:36.000Z</time>
      </trkpt>
      <trkpt lat="-24.83841" lon="152.461065">
        <ele>9.759007</ele>
        <time>2025-04-27T07:20:50.000Z</time>
      </trkpt>
      <trkpt lat="-24.838076" lon="152.461002">
        <ele>9.839164</ele>
        <time>2025-04-27T07:20:54.000Z</time>
      </trkpt>
      <trkpt lat="-24.837747" lon="152.460971">
        <ele>9.739438</ele>
        <time>2025-04-27T07:20:58.000Z</time>
      </trkpt>
      <trkpt lat="-24.837326" lon="152.460985">
        <ele>9.49336</ele>
        <time>2025-04-27T07:21:03.000Z</time>
      </trkpt>
      <trkpt lat="-24.837302" lon="152.461001">
        <ele>9.473209</ele>
        <time>2025-04-27T07:21:03.000Z</time>
      </trkpt>
      <trkpt lat="-24.837306" lon="152.460994">
        <ele>9.471989</ele>
        <time>2025-04-27T07:21:03.000Z</time>
      </trkpt>
      <trkpt lat="-24.837302" lon="152.460992">
        <ele>9.471379</ele>
        <time>2025-04-27T07:21:03.000Z</time>
      </trkpt>
      <trkpt lat="-24.837298" lon="152.461">
        <ele>9.468305</ele>
        <time>2025-04-27T07:21:03.000Z</time>
      </trkpt>
      <trkpt lat="-24.837296" lon="152.460989">
        <ele>9.467085</ele>
        <time>2025-04-27T07:21:03.000Z</time>
      </trkpt>
      <trkpt lat="-24.837283" lon="152.461004">
        <ele>9.465872</ele>
        <time>2025-04-27T07:21:03.000Z</time>
      </trkpt>
      <trkpt lat="-24.837279" lon="152.461002">
        <ele>9.463966</ele>
        <time>2025-04-27T07:21:03.000Z</time>
      </trkpt>
      <trkpt lat="-24.836939" lon="152.461038">
        <ele>9.254566</ele>
        <time>2025-04-27T07:21:07.000Z</time>
      </trkpt>
      <trkpt lat="-24.834784" lon="152.461427">
        <ele>7.497613</ele>
        <time>2025-04-27T07:21:31.000Z</time>
      </trkpt>
      <trkpt lat="-24.834555" lon="152.461464">
        <ele>7.281484</ele>
        <time>2025-04-27T07:21:34.000Z</time>
      </trkpt>
      <trkpt lat="-24.834187" lon="152.461415">
        <ele>7.058366</ele>
        <time>2025-04-27T07:21:38.000Z</time>
      </trkpt>
      <trkpt lat="-24.834172" lon="152.461415">
        <ele>7.052774</ele>
        <time>2025-04-27T07:21:38.000Z</time>
      </trkpt>
      <trkpt lat="-24.834061" lon="152.46146">
        <ele>7.014231</ele>
        <time>2025-04-27T07:21:39.000Z</time>
      </trkpt>
      <trkpt lat="-24.833968" lon="152.461518">
        <ele>6.980768</ele>
        <time>2025-04-27T07:21:40.000Z</time>
      </trkpt>
      <trkpt lat="-24.833925" lon="152.461528">
        <ele>6.965402</ele>
        <time>2025-04-27T07:21:40.000Z</time>
      </trkpt>
      <trkpt lat="-24.833836" lon="152.461471">
        <ele>6.934889</ele>
        <time>2025-04-27T07:21:41.000Z</time>
      </trkpt>
      <trkpt lat="-24.833806" lon="152.461411">
        <ele>6.910881</ele>
        <time>2025-04-27T07:21:42.000Z</time>
      </trkpt>
      <trkpt lat="-24.833653" lon="152.46131">
        <ele>6.856082</ele>
        <time>2025-04-27T07:21:44.000Z</time>
      </trkpt>
      <trkpt lat="-24.8336" lon="152.461303">
        <ele>6.838025</ele>
        <time>2025-04-27T07:21:45.000Z</time>
      </trkpt>
      <trkpt lat="-24.833206" lon="152.461169">
        <ele>6.702602</ele>
        <time>2025-04-27T07:21:50.000Z</time>
      </trkpt>
      <trkpt lat="-24.832844" lon="152.460967">
        <ele>6.571834</ele>
        <time>2025-04-27T07:21:55.000Z</time>
      </trkpt>
      <trkpt lat="-24.832639" lon="152.460806">
        <ele>6.505586</ele>
        <time>2025-04-27T07:21:58.000Z</time>
      </trkpt>
      <trkpt lat="-24.832625" lon="152.46082">
        <ele>6.505139</ele>
        <time>2025-04-27T07:21:58.000Z</time>
      </trkpt>
      <trkpt lat="-24.832629" lon="152.460804">
        <ele>6.503689</ele>
        <time>2025-04-27T07:21:58.000Z</time>
      </trkpt>
      <trkpt lat="-24.83263" lon="152.460809">
        <ele>6.50342</ele>
        <time>2025-04-27T07:21:58.000Z</time>
      </trkpt>
      <trkpt lat="-24.832625" lon="152.460811">
        <ele>6.503146</ele>
        <time>2025-04-27T07:21:58.000Z</time>
      </trkpt>
      <trkpt lat="-24.832607" lon="152.460801">
        <ele>6.501428</ele>
        <time>2025-04-27T07:21:58.000Z</time>
      </trkpt>
      <trkpt lat="-24.832617" lon="152.460806">
        <ele>6.501153</ele>
        <time>2025-04-27T07:21:58.000Z</time>
      </trkpt>
      <trkpt lat="-24.832616" lon="152.460798">
        <ele>6.50087</ele>
        <time>2025-04-27T07:21:58.000Z</time>
      </trkpt>
      <trkpt lat="-24.832388" lon="152.460635">
        <ele>6.445442</ele>
        <time>2025-04-27T07:22:01.000Z</time>
      </trkpt>
      <trkpt lat="-24.831963" lon="152.460333">
        <ele>6.340404</ele>
        <time>2025-04-27T07:22:07.000Z</time>
      </trkpt>
      <trkpt lat="-24.831929" lon="152.460451">
        <ele>6.316758</ele>
        <time>2025-04-27T07:22:08.000Z</time>
      </trkpt>
      <trkpt lat="-24.831609" lon="152.461556">
        <ele>6.104719</ele>
        <time>2025-04-27T07:22:20.000Z</time>
      </trkpt>
      <trkpt lat="-24.83153" lon="152.461852">
        <ele>6.049514</ele>
        <time>2025-04-27T07:22:23.000Z</time>
      </trkpt>
      <trkpt lat="-24.8312" lon="152.462997">
        <ele>5.83518</ele>
        <time>2025-04-27T07:22:35.000Z</time>
      </trkpt>
      <trkpt lat="-24.831096" lon="152.463414">
        <ele>5.815182</ele>
        <time>2025-04-27T07:22:39.000Z</time>
      </trkpt>
      <trkpt lat="-24.830892" lon="152.464143">
        <ele>5.812446</ele>
        <time>2025-04-27T07:22:47.000Z</time>
      </trkpt>
      <trkpt lat="-24.830573" lon="152.465291">
        <ele>5.822048</ele>
        <time>2025-04-27T07:22:59.000Z</time>
      </trkpt>
      <trkpt lat="-24.830228" lon="152.466518">
        <ele>5.876452</ele>
        <time>2025-04-27T07:23:12.000Z</time>
      </trkpt>
      <trkpt lat="-24.830189" lon="152.466598">
        <ele>5.880327</ele>
        <time>2025-04-27T07:23:13.000Z</time>
      </trkpt>
      <trkpt lat="-24.829907" lon="152.466782">
        <ele>5.901602</ele>
        <time>2025-04-27T07:23:17.000Z</time>
      </trkpt>
      <trkpt lat="-24.829626" lon="152.467097">
        <ele>5.987296</ele>
        <time>2025-04-27T07:23:21.000Z</time>
      </trkpt>
      <trkpt lat="-24.829459" lon="152.467294">
        <ele>6.040271</ele>
        <time>2025-04-27T07:23:24.000Z</time>
      </trkpt>
      <trkpt lat="-24.829343" lon="152.467352">
        <ele>6.066733</ele>
        <time>2025-04-27T07:23:25.000Z</time>
      </trkpt>
      <trkpt lat="-24.829245" lon="152.46733">
        <ele>6.086705</ele>
        <time>2025-04-27T07:23:26.000Z</time>
      </trkpt>
      <trkpt lat="-24.828893" lon="152.467228">
        <ele>6.164255</ele>
        <time>2025-04-27T07:23:30.000Z</time>
      </trkpt>
      <trkpt lat="-24.827874" lon="152.466894">
        <ele>6.252968</ele>
        <time>2025-04-27T07:23:42.000Z</time>
      </trkpt>
      <trkpt lat="-24.827583" lon="152.466799">
        <ele>6.240875</ele>
        <time>2025-04-27T07:23:45.000Z</time>
      </trkpt>
      <trkpt lat="-24.827061" lon="152.466606">
        <ele>6.219419</ele>
        <time>2025-04-27T07:23:51.000Z</time>
      </trkpt>
      <trkpt lat="-24.826934" lon="152.466562">
        <ele>6.213977</ele>
        <time>2025-04-27T07:23:52.000Z</time>
      </trkpt>
      <trkpt lat="-24.826755" lon="152.466517">
        <ele>6.206419</ele>
        <time>2025-04-27T07:23:54.000Z</time>
      </trkpt>
      <trkpt lat="-24.826624" lon="152.46642">
        <ele>6.146541</ele>
        <time>2025-04-27T07:23:56.000Z</time>
      </trkpt>
      <trkpt lat="-24.826534" lon="152.466343">
        <ele>6.064563</ele>
        <time>2025-04-27T07:23:57.000Z</time>
      </trkpt>
      <trkpt lat="-24.826475" lon="152.466183">
        <ele>5.956749</ele>
        <time>2025-04-27T07:23:59.000Z</time>
      </trkpt>
      <trkpt lat="-24.826465" lon="152.466004">
        <ele>5.836663</ele>
        <time>2025-04-27T07:24:01.000Z</time>
      </trkpt>
      <trkpt lat="-24.826895" lon="152.464324">
        <ele>4.870251</ele>
        <time>2025-04-27T07:24:19.000Z</time>
      </trkpt>
      <trkpt lat="-24.826913" lon="152.464035">
        <ele>4.844831</ele>
        <time>2025-04-27T07:24:22.000Z</time>
      </trkpt>
      <trkpt lat="-24.826971" lon="152.463929">
        <ele>4.834769</ele>
        <time>2025-04-27T07:24:23.000Z</time>
      </trkpt>
      <trkpt lat="-24.827" lon="152.46392">
        <ele>4.831657</ele>
        <time>2025-04-27T07:24:23.000Z</time>
      </trkpt>
      <trkpt lat="-24.827016" lon="152.463855">
        <ele>4.825408</ele>
        <time>2025-04-27T07:24:24.000Z</time>
      </trkpt>
      <trkpt lat="-24.827025" lon="152.463784">
        <ele>4.8187</ele>
        <time>2025-04-27T07:24:25.000Z</time>
      </trkpt>
      <trkpt lat="-24.827032" lon="152.463745">
        <ele>4.815413</ele>
        <time>2025-04-27T07:24:25.000Z</time>
      </trkpt>
      <trkpt lat="-24.826961" lon="152.46365">
        <ele>4.80552</ele>
        <time>2025-04-27T07:24:26.000Z</time>
      </trkpt>
      <trkpt lat="-24.82685" lon="152.463637">
        <ele>4.795554</ele>
        <time>2025-04-27T07:24:27.000Z</time>
      </trkpt>
      <trkpt lat="-24.826793" lon="152.46367">
        <ele>4.788862</ele>
        <time>2025-04-27T07:24:28.000Z</time>
      </trkpt>
      <trkpt lat="-24.826741" lon="152.463751">
        <ele>4.778941</ele>
        <time>2025-04-27T07:24:29.000Z</time>
      </trkpt>
      <trkpt lat="-24.826749" lon="152.463786">
        <ele>4.776614</ele>
        <time>2025-04-27T07:24:29.000Z</time>
      </trkpt>
      <trkpt lat="-24.826744" lon="152.463792">
        <ele>4.776522</ele>
        <time>2025-04-27T07:24:29.000Z</time>
      </trkpt>
      <trkpt lat="-24.82674" lon="152.463781">
        <ele>4.776435</ele>
        <time>2025-04-27T07:24:29.000Z</time>
      </trkpt>
      <trkpt lat="-24.826744" lon="152.463794">
        <ele>4.77607</ele>
        <time>2025-04-27T07:24:29.000Z</time>
      </trkpt>
      <trkpt lat="-24.826746" lon="152.463874">
        <ele>4.769008</ele>
        <time>2025-04-27T07:24:30.000Z</time>
      </trkpt>
      <trkpt lat="-24.826793" lon="152.463932">
        <ele>4.762541</ele>
        <time>2025-04-27T07:24:31.000Z</time>
      </trkpt>
      <trkpt lat="-24.826838" lon="152.464069">
        <ele>4.748315</ele>
        <time>2025-04-27T07:24:32.000Z</time>
      </trkpt>
      <trkpt lat="-24.826892" lon="152.464325">
        <ele>4.72573</ele>
        <time>2025-04-27T07:24:35.000Z</time>
      </trkpt>
      <trkpt lat="-24.826457" lon="152.466008">
        <ele>5.889699</ele>
        <time>2025-04-27T07:24:53.000Z</time>
      </trkpt>
      <trkpt lat="-24.826481" lon="152.466193">
        <ele>6.012753</ele>
        <time>2025-04-27T07:24:55.000Z</time>
      </trkpt>
      <trkpt lat="-24.826546" lon="152.466337">
        <ele>6.073213</ele>
        <time>2025-04-27T07:24:57.000Z</time>
      </trkpt>
      <trkpt lat="-24.826622" lon="152.466435">
        <ele>6.091609</ele>
        <time>2025-04-27T07:24:58.000Z</time>
      </trkpt>
      <trkpt lat="-24.826765" lon="152.466517">
        <ele>6.117378</ele>
        <time>2025-04-27T07:25:00.000Z</time>
      </trkpt>
      <trkpt lat="-24.826948" lon="152.466575">
        <ele>6.14821</ele>
        <time>2025-04-27T07:25:02.000Z</time>
      </trkpt>
      <trkpt lat="-24.827074" lon="152.46662">
        <ele>6.170397</ele>
        <time>2025-04-27T07:25:03.000Z</time>
      </trkpt>
      <trkpt lat="-24.827591" lon="152.466782">
        <ele>6.257897</ele>
        <time>2025-04-27T07:25:09.000Z</time>
      </trkpt>
      <trkpt lat="-24.827873" lon="152.466886">
        <ele>6.307231</ele>
        <time>2025-04-27T07:25:12.000Z</time>
      </trkpt>
      <trkpt lat="-24.828896" lon="152.467229">
        <ele>6.155041</ele>
        <time>2025-04-27T07:25:24.000Z</time>
      </trkpt>
      <trkpt lat="-24.829247" lon="152.467333">
        <ele>6.065189</ele>
        <time>2025-04-27T07:25:28.000Z</time>
      </trkpt>
      <trkpt lat="-24.829346" lon="152.467345">
        <ele>6.042038</ele>
        <time>2025-04-27T07:25:29.000Z</time>
      </trkpt>
      <trkpt lat="-24.829452" lon="152.467299">
        <ele>6.011357</ele>
        <time>2025-04-27T07:25:30.000Z</time>
      </trkpt>
      <trkpt lat="-24.829627" lon="152.467099">
        <ele>5.949979</ele>
        <time>2025-04-27T07:25:33.000Z</time>
      </trkpt>
      <trkpt lat="-24.829911" lon="152.466768">
        <ele>5.897154</ele>
        <time>2025-04-27T07:25:38.000Z</time>
      </trkpt>
      <trkpt lat="-24.830182" lon="152.466604">
        <ele>5.881612</ele>
        <time>2025-04-27T07:25:41.000Z</time>
      </trkpt>
      <trkpt lat="-24.830229" lon="152.466518">
        <ele>5.877455</ele>
        <time>2025-04-27T07:25:42.000Z</time>
      </trkpt>
      <trkpt lat="-24.830584" lon="152.465301">
        <ele>5.819347</ele>
        <time>2025-04-27T07:25:55.000Z</time>
      </trkpt>
      <trkpt lat="-24.830878" lon="152.464157">
        <ele>5.811874</ele>
        <time>2025-04-27T07:26:07.000Z</time>
      </trkpt>
      <trkpt lat="-24.831092" lon="152.463416">
        <ele>5.807038</ele>
        <time>2025-04-27T07:26:15.000Z</time>
      </trkpt>
      <trkpt lat="-24.831201" lon="152.463">
        <ele>5.861695</ele>
        <time>2025-04-27T07:26:19.000Z</time>
      </trkpt>
      <trkpt lat="-24.831536" lon="152.461851">
        <ele>6.022207</ele>
        <time>2025-04-27T07:26:31.000Z</time>
      </trkpt>
      <trkpt lat="-24.831614" lon="152.461559">
        <ele>6.063557</ele>
        <time>2025-04-27T07:26:34.000Z</time>
      </trkpt>
      <trkpt lat="-24.831929" lon="152.460445">
        <ele>6.330111</ele>
        <time>2025-04-27T07:26:46.000Z</time>
      </trkpt>
      <trkpt lat="-24.831968" lon="152.46032">
        <ele>6.359912</ele>
        <time>2025-04-27T07:26:47.000Z</time>
      </trkpt>
      <trkpt lat="-24.83238" lon="152.460632">
        <ele>6.492238</ele>
        <time>2025-04-27T07:26:53.000Z</time>
      </trkpt>
      <trkpt lat="-24.832609" lon="152.4608">
        <ele>6.557511</ele>
        <time>2025-04-27T07:26:56.000Z</time>
      </trkpt>
      <trkpt lat="-24.832624" lon="152.460803">
        <ele>6.557801</ele>
        <time>2025-04-27T07:26:56.000Z</time>
      </trkpt>
      <trkpt lat="-24.832618" lon="152.460801">
        <ele>6.558078</ele>
        <time>2025-04-27T07:26:56.000Z</time>
      </trkpt>
      <trkpt lat="-24.83262" lon="152.460815">
        <ele>6.559871</ele>
        <time>2025-04-27T07:26:56.000Z</time>
      </trkpt>
      <trkpt lat="-24.832625" lon="152.460816">
        <ele>6.560161</ele>
        <time>2025-04-27T07:26:56.000Z</time>
      </trkpt>
      <trkpt lat="-24.832626" lon="152.460806">
        <ele>6.560454</ele>
        <time>2025-04-27T07:26:56.000Z</time>
      </trkpt>
      <trkpt lat="-24.832628" lon="152.460804">
        <ele>6.56195</ele>
        <time>2025-04-27T07:26:56.000Z</time>
      </trkpt>
      <trkpt lat="-24.832628" lon="152.460807">
        <ele>6.562411</ele>
        <time>2025-04-27T07:26:56.000Z</time>
      </trkpt>
      <trkpt lat="-24.832841" lon="152.460964">
        <ele>6.617964</ele>
        <time>2025-04-27T07:26:59.000Z</time>
      </trkpt>
      <trkpt lat="-24.833212" lon="152.461168">
        <ele>6.703492</ele>
        <time>2025-04-27T07:27:04.000Z</time>
      </trkpt>
      <trkpt lat="-24.833607" lon="152.461295">
        <ele>6.792065</ele>
        <time>2025-04-27T07:27:09.000Z</time>
      </trkpt>
      <trkpt lat="-24.833653" lon="152.461323">
        <ele>6.803868</ele>
        <time>2025-04-27T07:27:10.000Z</time>
      </trkpt>
      <trkpt lat="-24.833806" lon="152.461404">
        <ele>6.839707</ele>
        <time>2025-04-27T07:27:12.000Z</time>
      </trkpt>
      <trkpt lat="-24.833845" lon="152.461478">
        <ele>6.855401</ele>
        <time>2025-04-27T07:27:13.000Z</time>
      </trkpt>
      <trkpt lat="-24.833922" lon="152.461533">
        <ele>6.875363</ele>
        <time>2025-04-27T07:27:14.000Z</time>
      </trkpt>
      <trkpt lat="-24.833964" lon="152.461525">
        <ele>6.885415</ele>
        <time>2025-04-27T07:27:14.000Z</time>
      </trkpt>
      <trkpt lat="-24.834059" lon="152.461459">
        <ele>6.907291</ele>
        <time>2025-04-27T07:27:15.000Z</time>
      </trkpt>
      <trkpt lat="-24.834158" lon="152.461423">
        <ele>6.970842</ele>
        <time>2025-04-27T07:27:16.000Z</time>
      </trkpt>
      <trkpt lat="-24.834185" lon="152.461415">
        <ele>6.986071</ele>
        <time>2025-04-27T07:27:16.000Z</time>
      </trkpt>
      <trkpt lat="-24.83455" lon="152.461446">
        <ele>7.319633</ele>
        <time>2025-04-27T07:27:20.000Z</time>
      </trkpt>
      <trkpt lat="-24.8348" lon="152.461423">
        <ele>7.529371</ele>
        <time>2025-04-27T07:27:23.000Z</time>
      </trkpt>
      <trkpt lat="-24.836946" lon="152.46103">
        <ele>9.282035</ele>
        <time>2025-04-27T07:27:47.000Z</time>
      </trkpt>
      <trkpt lat="-24.837277" lon="152.461002">
        <ele>9.527869</ele>
        <time>2025-04-27T07:27:51.000Z</time>
      </trkpt>
      <trkpt lat="-24.83729" lon="152.460994">
        <ele>9.530098</ele>
        <time>2025-04-27T07:27:51.000Z</time>
      </trkpt>
      <trkpt lat="-24.837289" lon="152.460997">
        <ele>9.531528</ele>
        <time>2025-04-27T07:27:51.000Z</time>
      </trkpt>
      <trkpt lat="-24.837283" lon="152.460988">
        <ele>9.532936</ele>
        <time>2025-04-27T07:27:51.000Z</time>
      </trkpt>
      <trkpt lat="-24.837301" lon="152.460993">
        <ele>9.536559</ele>
        <time>2025-04-27T07:27:51.000Z</time>
      </trkpt>
      <trkpt lat="-24.837295" lon="152.460991">
        <ele>9.537287</ele>
        <time>2025-04-27T07:27:51.000Z</time>
      </trkpt>
      <trkpt lat="-24.837297" lon="152.460997">
        <ele>9.538703</ele>
        <time>2025-04-27T07:27:51.000Z</time>
      </trkpt>
      <trkpt lat="-24.837337" lon="152.460982">
        <ele>9.56237</ele>
        <time>2025-04-27T07:27:51.000Z</time>
      </trkpt>
      <trkpt lat="-24.83773" lon="152.460974">
        <ele>9.796436</ele>
        <time>2025-04-27T07:27:55.000Z</time>
      </trkpt>
      <trkpt lat="-24.838068" lon="152.461006">
        <ele>9.751516</ele>
        <time>2025-04-27T07:27:59.000Z</time>
      </trkpt>
      <trkpt lat="-24.838415" lon="152.461059">
        <ele>9.706144</ele>
        <time>2025-04-27T07:28:03.000Z</time>
      </trkpt>
      <trkpt lat="-24.839606" lon="152.461359">
        <ele>9.513115</ele>
        <time>2025-04-27T07:28:17.000Z</time>
      </trkpt>
      <trkpt lat="-24.840088" lon="152.461442">
        <ele>9.356994</ele>
        <time>2025-04-27T07:28:22.000Z</time>
      </trkpt>
      <trkpt lat="-24.840457" lon="152.461483">
        <ele>9.240274</ele>
        <time>2025-04-27T07:28:26.000Z</time>
      </trkpt>
      <trkpt lat="-24.840878" lon="152.461481">
        <ele>9.103886</ele>
        <time>2025-04-27T07:28:31.000Z</time>
      </trkpt>
      <trkpt lat="-24.841411" lon="152.461416">
        <ele>9.036504</ele>
        <time>2025-04-27T07:28:37.000Z</time>
      </trkpt>
      <trkpt lat="-24.840887" lon="152.461481">
        <ele>9.159351</ele>
        <time>2025-04-27T07:28:43.000Z</time>
      </trkpt>
      <trkpt lat="-24.840452" lon="152.461483">
        <ele>9.257065</ele>
        <time>2025-04-27T07:28:48.000Z</time>
      </trkpt>
      <trkpt lat="-24.840086" lon="152.46145">
        <ele>9.340696</ele>
        <time>2025-04-27T07:28:52.000Z</time>
      </trkpt>
      <trkpt lat="-24.839599" lon="152.461366">
        <ele>9.460416</ele>
        <time>2025-04-27T07:28:57.000Z</time>
      </trkpt>
      <trkpt lat="-24.838414" lon="152.461061">
        <ele>9.78395</ele>
        <time>2025-04-27T07:29:11.000Z</time>
      </trkpt>
      <trkpt lat="-24.838075" lon="152.461009">
        <ele>9.874505</ele>
        <time>2025-04-27T07:29:15.000Z</time>
      </trkpt>
      <trkpt lat="-24.83774" lon="152.460966">
        <ele>9.702698</ele>
        <time>2025-04-27T07:29:19.000Z</time>
      </trkpt>
      <trkpt lat="-24.837325" lon="152.46099">
        <ele>9.474539</ele>
        <time>2025-04-27T07:29:24.000Z</time>
      </trkpt>
      <trkpt lat="-24.837298" lon="152.461001">
        <ele>9.455855</ele>
        <time>2025-04-27T07:29:24.000Z</time>
      </trkpt>
      <trkpt lat="-24.8373" lon="152.460988">
        <ele>9.454733</ele>
        <time>2025-04-27T07:29:24.000Z</time>
      </trkpt>
      <trkpt lat="-24.83729" lon="152.460993">
        <ele>9.454155</ele>
        <time>2025-04-27T07:29:24.000Z</time>
      </trkpt>
      <trkpt lat="-24.837287" lon="152.460999">
        <ele>9.451294</ele>
        <time>2025-04-27T07:29:24.000Z</time>
      </trkpt>
      <trkpt lat="-24.837288" lon="152.460997">
        <ele>9.450176</ele>
        <time>2025-04-27T07:29:24.000Z</time>
      </trkpt>
      <trkpt lat="-24.83728" lon="152.460987">
        <ele>9.449049</ele>
        <time>2025-04-27T07:29:24.000Z</time>
      </trkpt>
      <trkpt lat="-24.83729" lon="152.461">
        <ele>9.447289</ele>
        <time>2025-04-27T07:29:24.000Z</time>
      </trkpt>
      <trkpt lat="-24.836936" lon="152.461042">
        <ele>9.253116</ele>
        <time>2025-04-27T07:29:28.000Z</time>
      </trkpt>
      <trkpt lat="-24.834794" lon="152.461433">
        <ele>7.489745</ele>
        <time>2025-04-27T07:29:52.000Z</time>
      </trkpt>
      <trkpt lat="-24.83455" lon="152.461463">
        <ele>7.272883</ele>
        <time>2025-04-27T07:29:55.000Z</time>
      </trkpt>
      <trkpt lat="-24.834181" lon="152.461423">
        <ele>7.09569</ele>
        <time>2025-04-27T07:29:59.000Z</time>
      </trkpt>
      <trkpt lat="-24.834173" lon="152.461425">
        <ele>7.089273</ele>
        <time>2025-04-27T07:29:59.000Z</time>
      </trkpt>
      <trkpt lat="-24.834062" lon="152.461454">
        <ele>7.045024</ele>
        <time>2025-04-27T07:30:00.000Z</time>
      </trkpt>
      <trkpt lat="-24.833975" lon="152.46152">
        <ele>7.006612</ele>
        <time>2025-04-27T07:30:01.000Z</time>
      </trkpt>
      <trkpt lat="-24.833923" lon="152.461518">
        <ele>6.98896</ele>
        <time>2025-04-27T07:30:02.000Z</time>
      </trkpt>
      <trkpt lat="-24.833848" lon="152.461487">
        <ele>6.953935</ele>
        <time>2025-04-27T07:30:03.000Z</time>
      </trkpt>
      <trkpt lat="-24.833804" lon="152.461414">
        <ele>6.926379</ele>
        <time>2025-04-27T07:30:04.000Z</time>
      </trkpt>
      <trkpt lat="-24.833663" lon="152.461321">
        <ele>6.863473</ele>
        <time>2025-04-27T07:30:06.000Z</time>
      </trkpt>
      <trkpt lat="-24.833612" lon="152.46131">
        <ele>6.842745</ele>
        <time>2025-04-27T07:30:07.000Z</time>
      </trkpt>
      <trkpt lat="-24.833205" lon="152.46118">
        <ele>6.687288</ele>
        <time>2025-04-27T07:30:12.000Z</time>
      </trkpt>
      <trkpt lat="-24.832857" lon="152.460964">
        <ele>6.537175</ele>
        <time>2025-04-27T07:30:16.000Z</time>
      </trkpt>
      <trkpt lat="-24.832633" lon="152.46081">
        <ele>6.488722</ele>
        <time>2025-04-27T07:30:19.000Z</time>
      </trkpt>
      <trkpt lat="-24.832629" lon="152.46082">
        <ele>6.48832</ele>
        <time>2025-04-27T07:30:19.000Z</time>
      </trkpt>
      <trkpt lat="-24.832627" lon="152.460808">
        <ele>6.487018</ele>
        <time>2025-04-27T07:30:19.000Z</time>
      </trkpt>
      <trkpt lat="-24.832633" lon="152.460814">
        <ele>6.486777</ele>
        <time>2025-04-27T07:30:19.000Z</time>
      </trkpt>
      <trkpt lat="-24.832617" lon="152.460811">
        <ele>6.486527</ele>
        <time>2025-04-27T07:30:19.000Z</time>
      </trkpt>
      <trkpt lat="-24.832616" lon="152.460796">
        <ele>6.484976</ele>
        <time>2025-04-27T07:30:19.000Z</time>
      </trkpt>
      <trkpt lat="-24.832612" lon="152.460807">
        <ele>6.48474</ele>
        <time>2025-04-27T07:30:19.000Z</time>
      </trkpt>
      <trkpt lat="-24.832613" lon="152.460806">
        <ele>6.484486</ele>
        <time>2025-04-27T07:30:19.000Z</time>
      </trkpt>
      <trkpt lat="-24.832394" lon="152.46063">
        <ele>6.43475</ele>
        <time>2025-04-27T07:30:22.000Z</time>
      </trkpt>
      <trkpt lat="-24.831967" lon="152.460331">
        <ele>6.340501</ele>
        <time>2025-04-27T07:30:28.000Z</time>
      </trkpt>
      <trkpt lat="-24.83193" lon="152.460442">
        <ele>6.319262</ele>
        <time>2025-04-27T07:30:29.000Z</time>
      </trkpt>
      <trkpt lat="-24.831622" lon="152.461543">
        <ele>6.113862</ele>
        <time>2025-04-27T07:30:41.000Z</time>
      </trkpt>
      <trkpt lat="-24.831529" lon="152.461841">
        <ele>6.053553</ele>
        <time>2025-04-27T07:30:44.000Z</time>
      </trkpt>
      <trkpt lat="-24.831203" lon="152.463009">
        <ele>5.820714</ele>
        <time>2025-04-27T07:30:56.000Z</time>
      </trkpt>
      <trkpt lat="-24.831084" lon="152.463411">
        <ele>5.817665</ele>
        <time>2025-04-27T07:31:00.000Z</time>
      </trkpt>
      <trkpt lat="-24.830887" lon="152.464154">
        <ele>5.812069</ele>
        <time>2025-04-27T07:31:08.000Z</time>
      </trkpt>
      <trkpt lat="-24.830585" lon="152.465301">
        <ele>5.824003</ele>
        <time>2025-04-27T07:31:20.000Z</time>
      </trkpt>
      <trkpt lat="-24.830223" lon="152.466531">
        <ele>5.878352</ele>
        <time>2025-04-27T07:31:33.000Z</time>
      </trkpt>
      <trkpt lat="-24.830187" lon="152.466608">
        <ele>5.882218</ele>
        <time>2025-04-27T07:31:34.000Z</time>
      </trkpt>
      <trkpt lat="-24.829925" lon="152.466779">
        <ele>5.918041</ele>
        <time>2025-04-27T07:31:37.000Z</time>
      </trkpt>
      <trkpt lat="-24.829635" lon="152.467098">
        <ele>5.996723</ele>
        <time>2025-04-27T07:31:42.000Z</time>
      </trkpt>
      <trkpt lat="-24.829451" lon="152.467294">
        <ele>6.045336</ele>
        <time>2025-04-27T07:31:45.000Z</time>
      </trkpt>
      <trkpt lat="-24.829342" lon="152.467349">
        <ele>6.069639</ele>
        <time>2025-04-27T07:31:46.000Z</time>
      </trkpt>
      <trkpt lat="-24.829256" lon="152.46733">
        <ele>6.087964</ele>
        <time>2025-04-27T07:31:47.000Z</time>
      </trkpt>
      <trkpt lat="-24.828902" lon="152.467235">
        <ele>6.159145</ele>
        <time>2025-04-27T07:31:51.000Z</time>
      </trkpt>
      <trkpt lat="-24.827874" lon="152.466891">
        <ele>6.24366</ele>
        <time>2025-04-27T07:32:03.000Z</time>
      </trkpt>
      <trkpt lat="-24.827585" lon="152.466791">
        <ele>6.245068</ele>
        <time>2025-04-27T07:32:06.000Z</time>
      </trkpt>
      <trkpt lat="-24.827071" lon="152.466622">
        <ele>6.247564</ele>
        <time>2025-04-27T07:32:12.000Z</time>
      </trkpt>
      <trkpt lat="-24.826937" lon="152.466572">
        <ele>6.248193</ele>
        <time>2025-04-27T07:32:14.000Z</time>
      </trkpt>
      <trkpt lat="-24.82676" lon="152.466509">
        <ele>6.232875</ele>
        <time>2025-04-27T07:32:16.000Z</time>
      </trkpt>
      <trkpt lat="-24.82662" lon="152.46643">
        <ele>6.120502</ele>
        <time>2025-04-27T07:32:18.000Z</time>
      </trkpt>
      <trkpt lat="-24.826541" lon="152.466342">
        <ele>6.040341</ele>
        <time>2025-04-27T07:32:19.000Z</time>
      </trkpt>
      <trkpt lat="-24.826466" lon="152.466198">
        <ele>5.934899</ele>
        <time>2025-04-27T07:32:21.000Z</time>
      </trkpt>
      <trkpt lat="-24.826454" lon="152.466019">
        <ele>5.817471</ele>
        <time>2025-04-27T07:32:23.000Z</time>
      </trkpt>
      <trkpt lat="-24.82689" lon="152.464326">
        <ele>4.905435</ele>
        <time>2025-04-27T07:32:41.000Z</time>
      </trkpt>
      <trkpt lat="-24.826919" lon="152.464042">
        <ele>4.861319</ele>
        <time>2025-04-27T07:32:44.000Z</time>
      </trkpt>
      <trkpt lat="-24.826971" lon="152.463936">
        <ele>4.843875</ele>
        <time>2025-04-27T07:32:45.000Z</time>
      </trkpt>
      <trkpt lat="-24.826983" lon="152.463915">
        <ele>4.838461</ele>
        <time>2025-04-27T07:32:45.000Z</time>
      </trkpt>
      <trkpt lat="-24.827029" lon="152.463844">
        <ele>4.827628</ele>
        <time>2025-04-27T07:32:46.000Z</time>
      </trkpt>
      <trkpt lat="-24.827029" lon="152.463782">
        <ele>4.815981</ele>
        <time>2025-04-27T07:32:47.000Z</time>
      </trkpt>
      <trkpt lat="-24.827028" lon="152.463736">
        <ele>4.810246</ele>
        <time>2025-04-27T07:32:47.000Z</time>
      </trkpt>
      <trkpt lat="-24.82695" lon="152.463659">
        <ele>4.793084</ele>
        <time>2025-04-27T07:32:48.000Z</time>
      </trkpt>
      <trkpt lat="-24.826862" lon="152.463645">
        <ele>4.775773</ele>
        <time>2025-04-27T07:32:49.000Z</time>
      </trkpt>
      <trkpt lat="-24.826793" lon="152.463673">
        <ele>4.764153</ele>
        <time>2025-04-27T07:32:50.000Z</time>
      </trkpt>
      <trkpt lat="-24.826733" lon="152.463759">
        <ele>4.746951</ele>
        <time>2025-04-27T07:32:51.000Z</time>
      </trkpt>
      <trkpt lat="-24.826742" lon="152.463777">
        <ele>4.742927</ele>
        <time>2025-04-27T07:32:51.000Z</time>
      </trkpt>
      <trkpt lat="-24.826735" lon="152.463781">
        <ele>4.742764</ele>
        <time>2025-04-27T07:32:51.000Z</time>
      </trkpt>
      <trkpt lat="-24.826737" lon="152.463788">
        <ele>4.742616</ele>
        <time>2025-04-27T07:32:51.000Z</time>
      </trkpt>
      <trkpt lat="-24.826739" lon="152.463788">
        <ele>4.741982</ele>
        <time>2025-04-27T07:32:51.000Z</time>
      </trkpt>
      <trkpt lat="-24.826754" lon="152.463866">
        <ele>4.729735</ele>
        <time>2025-04-27T07:32:52.000Z</time>
      </trkpt>
      <trkpt lat="-24.826779" lon="152.463933">
        <ele>4.718504</ele>
        <time>2025-04-27T07:32:53.000Z</time>
      </trkpt>
      <trkpt lat="-24.826847" lon="152.46408">
        <ele>4.693809</ele>
        <time>2025-04-27T07:32:55.000Z</time>
      </trkpt>
      <trkpt lat="-24.826894" lon="152.464315">
        <ele>4.66437485172</ele>
        <time>2025-04-27T07:32:57.000Z</time>
      </trkpt>
      <trkpt lat="-24.826465" lon="152.466001">
        <ele>4.4501966094</ele>
        <time>2025-04-27T07:33:15.000Z</time>
      </trkpt>
      <trkpt lat="-24.826475" lon="152.466183">
        <ele>4.42789409045</ele>
        <time>2025-04-27T07:33:17.000Z</time>
      </trkpt>
      <trkpt lat="-24.826535" lon="152.466334">
        <ele>4.4077315769</ele>
        <time>2025-04-27T07:33:19.000Z</time>
      </trkpt>
      <trkpt lat="-24.826611" lon="152.466431">
        <ele>4.39205720032</ele>
        <time>2025-04-27T07:33:20.000Z</time>
      </trkpt>
      <trkpt lat="-24.826759" lon="152.466513">
        <ele>4.36973103911</ele>
        <time>2025-04-27T07:33:22.000Z</time>
      </trkpt>
      <trkpt lat="-24.826947" lon="152.466569">
        <ele>4.34348423167</ele>
        <time>2025-04-27T07:33:24.000Z</time>
      </trkpt>
      <trkpt lat="-24.827067" lon="152.466617">
        <ele>4.32627878057</ele>
        <time>2025-04-27T07:33:25.000Z</time>
      </trkpt>
    </trkseg>
  </trk>
</gpx>

<!--
Performance optimized by W3 Total Cache. Learn more: https://www.boldgrid.com/w3-total-cache/?utm_source=w3tc&utm_medium=footer_comment&utm_campaign=free_plugin

Page Caching using Disk: Enhanced{w3tc_pagecache_reject_reason} 

Served from: www.aquabike.world @ 2026-05-10 23:00:16 by W3 Total Cache
-->